createdAt,value
2022-09-17T00:01:28.497Z,4.10
2022-09-17T00:04:00.220Z,4.30
2022-09-17T00:06:28.246Z,4.40
2022-09-17T00:08:56.384Z,4.07
2022-09-17T00:11:26.762Z,3.97
2022-09-17T00:13:57.052Z,4.03
2022-09-17T00:16:34.029Z,4.37
2022-09-17T00:19:03.043Z,3.70
2022-09-17T00:21:31.156Z,2.80
2022-09-17T00:24:00.896Z,3.10
2022-09-17T00:26:30.074Z,3.20
2022-09-17T00:29:00.554Z,2.90
2022-09-17T00:31:30.084Z,3.10
2022-09-17T00:33:59.740Z,2.87
2022-09-17T00:36:27.996Z,2.53
2022-09-17T00:38:58.285Z,2.07
2022-09-17T00:41:28.628Z,2.20
2022-09-17T00:43:58.604Z,2.10
2022-09-17T00:46:33.957Z,2.57
2022-09-17T00:49:04.810Z,2.40
2022-09-17T00:51:42.642Z,2.67
2022-09-17T00:54:12.499Z,3.03
2022-09-17T00:56:43.576Z,2.90
2022-09-17T00:59:12.018Z,3.00
2022-09-17T01:01:41.470Z,2.60
2022-09-17T01:04:17.728Z,3.13
2022-09-17T01:06:54.612Z,3.10
2022-09-17T01:09:33.086Z,3.03
2022-09-17T01:12:18.148Z,3.10
2022-09-17T01:14:57.890Z,3.13
2022-09-17T01:17:40.042Z,3.13
2022-09-17T01:20:38.067Z,3.10
2022-09-17T01:23:29.519Z,3.30
2022-09-17T01:26:13.510Z,3.70
2022-09-17T01:28:46.691Z,2.83
2022-09-17T01:31:35.983Z,2.83
2022-09-17T01:34:14.477Z,2.97
2022-09-17T01:36:55.235Z,2.90
2022-09-17T01:39:33.909Z,2.87
2022-09-17T01:42:10.748Z,3.10
2022-09-17T01:44:46.317Z,3.00
2022-09-17T01:47:21.311Z,3.10
2022-09-17T01:49:52.698Z,2.90
2022-09-17T01:52:21.986Z,2.90
2022-09-17T01:54:54.684Z,2.90
2022-09-17T01:57:29.036Z,3.20
2022-09-17T02:00:01.140Z,3.03
2022-09-17T02:02:34.190Z,2.90
2022-09-17T02:05:07.759Z,2.93
2022-09-17T02:07:41.940Z,2.30
2022-09-17T02:10:13.420Z,2.70
2022-09-17T02:12:45.395Z,2.93
2022-09-17T02:15:21.130Z,3.17
2022-09-17T02:17:56.358Z,3.23
2022-09-17T02:20:28.846Z,2.70
2022-09-17T02:22:59.182Z,2.63
2022-09-17T02:25:32.477Z,2.77
2022-09-17T02:28:04.242Z,2.90
2022-09-17T02:30:32.879Z,2.90
2022-09-17T02:33:03.730Z,2.50
2022-09-17T02:35:33.346Z,2.77
2022-09-17T02:38:01.568Z,2.70
2022-09-17T02:40:36.310Z,2.57
2022-09-17T02:43:15.088Z,2.30
2022-09-17T02:45:54.702Z,2.40
2022-09-17T02:48:39.704Z,2.20
2022-09-17T02:51:21.783Z,2.27
2022-09-17T02:53:59.816Z,2.03
2022-09-17T02:56:42.762Z,2.10
2022-09-17T02:59:19.700Z,1.80
2022-09-17T03:01:53.642Z,2.33
2022-09-17T03:04:25.367Z,2.47
2022-09-17T03:06:54.203Z,2.40
2022-09-17T03:09:22.407Z,2.30
2022-09-17T03:11:50.503Z,2.00
2022-09-17T03:14:20.798Z,2.27
2022-09-17T03:16:49.017Z,2.30
2022-09-17T03:19:17.099Z,2.60
2022-09-17T03:21:46.850Z,2.37
2022-09-17T03:24:14.922Z,2.43
2022-09-17T03:26:42.962Z,2.20
2022-09-17T03:29:11.001Z,2.80
2022-09-17T03:31:39.088Z,2.67
2022-09-17T03:34:07.369Z,2.70
2022-09-17T03:36:35.535Z,2.40
2022-09-17T03:39:05.851Z,3.03
2022-09-17T03:41:33.873Z,2.70
2022-09-17T03:44:01.948Z,2.60
2022-09-17T03:46:29.990Z,2.70
2022-09-17T03:48:58.052Z,3.20
2022-09-17T03:51:26.199Z,3.17
2022-09-17T03:53:54.317Z,3.20
2022-09-17T03:56:23.698Z,3.80
2022-09-17T03:58:51.761Z,3.73
2022-09-17T04:01:19.883Z,4.13
2022-09-17T04:03:47.960Z,4.30
2022-09-17T04:06:15.988Z,4.03
2022-09-17T04:08:44.183Z,4.87
2022-09-17T04:11:12.269Z,4.80
2022-09-17T04:13:41.685Z,4.73
2022-09-17T04:16:09.847Z,5.07
2022-09-17T04:18:38.220Z,4.93
2022-09-17T04:21:06.499Z,5.10
2022-09-17T04:23:34.546Z,5.20
2022-09-17T04:26:02.556Z,5.20
2022-09-17T04:28:30.594Z,5.20
2022-09-17T04:30:59.995Z,5.17
2022-09-17T04:33:28.190Z,5.67
2022-09-17T04:35:56.187Z,5.20
2022-09-17T04:38:24.370Z,5.40
2022-09-17T04:40:52.488Z,5.67
2022-09-17T04:43:20.514Z,5.67
2022-09-17T04:45:49.369Z,6.00
2022-09-17T04:48:19.119Z,5.80
2022-09-17T04:50:47.167Z,5.93
2022-09-17T04:53:15.183Z,6.07
2022-09-17T04:55:43.955Z,6.20
2022-09-17T04:58:12.002Z,6.20
2022-09-17T05:00:40.598Z,5.57
2022-09-17T05:03:08.897Z,5.90
2022-09-17T05:05:38.319Z,5.70
2022-09-17T05:08:08.373Z,5.63
2022-09-17T05:10:36.647Z,5.90
2022-09-17T05:13:04.675Z,5.73
2022-09-17T05:15:32.693Z,6.10
2022-09-17T05:18:00.779Z,6.17
2022-09-17T05:20:28.823Z,6.27
2022-09-17T05:22:58.220Z,6.37
2022-09-17T05:25:26.302Z,6.67
2022-09-17T05:27:54.993Z,7.00
2022-09-17T05:30:23.302Z,6.43
2022-09-17T05:33:00.549Z,6.47
2022-09-17T05:35:28.985Z,6.83
2022-09-17T05:38:03.199Z,6.67
2022-09-17T05:40:32.815Z,6.03
2022-09-17T05:43:01.389Z,6.20
2022-09-17T05:45:29.980Z,6.10
2022-09-17T05:47:58.955Z,6.17
2022-09-17T05:50:28.075Z,6.40
2022-09-17T05:52:56.435Z,5.63
2022-09-17T05:55:27.838Z,5.53
2022-09-17T05:57:55.930Z,5.13
2022-09-17T06:00:24.109Z,6.23
2022-09-17T06:02:56.089Z,6.40
2022-09-17T06:05:24.362Z,5.70
2022-09-17T06:07:52.664Z,6.23
2022-09-17T06:10:20.728Z,5.33
2022-09-17T06:12:50.090Z,6.37
2022-09-17T06:15:18.406Z,5.30
2022-09-17T06:17:46.438Z,5.97
2022-09-17T06:20:16.372Z,5.97
2022-09-17T06:22:44.403Z,6.00
2022-09-17T06:25:13.110Z,4.87
2022-09-17T06:27:41.186Z,6.20
2022-09-17T06:30:11.131Z,5.83
2022-09-17T06:32:39.156Z,5.90
2022-09-17T06:35:08.302Z,5.73
2022-09-17T06:37:40.283Z,5.60
2022-09-17T06:40:10.074Z,6.77
2022-09-17T06:42:38.162Z,5.30
2022-09-17T06:45:10.271Z,5.93
2022-09-17T06:47:42.752Z,5.47
2022-09-17T06:50:11.190Z,6.07
2022-09-17T06:52:39.346Z,5.97
2022-09-17T06:55:07.848Z,5.30
2022-09-17T06:57:35.878Z,5.43
2022-09-17T07:00:05.118Z,5.20
2022-09-17T07:02:33.372Z,4.97
2022-09-17T07:05:02.832Z,5.20
2022-09-17T07:07:31.074Z,5.80
2022-09-17T07:09:59.111Z,5.80
2022-09-17T07:12:27.126Z,5.80
2022-09-17T07:14:55.172Z,4.57
2022-09-17T07:17:23.314Z,5.20
2022-09-17T07:19:51.351Z,4.63
2022-09-17T07:22:20.768Z,5.17
2022-09-17T07:24:48.887Z,5.13
2022-09-17T07:27:16.881Z,5.00
2022-09-17T07:29:44.944Z,4.20
2022-09-17T07:32:12.987Z,4.27
2022-09-17T07:34:41.056Z,4.17
2022-09-17T07:37:09.074Z,4.47
2022-09-17T07:39:38.663Z,4.70
2022-09-17T07:42:07.016Z,4.53
2022-09-17T07:44:35.203Z,4.20
2022-09-17T07:47:03.312Z,4.73
2022-09-17T07:49:31.498Z,4.20
2022-09-17T07:52:00.597Z,3.90
2022-09-17T07:54:28.618Z,3.83
2022-09-17T07:56:58.009Z,3.93
2022-09-17T07:59:26.078Z,4.00
2022-09-17T08:01:54.178Z,4.00
2022-09-17T08:04:22.923Z,3.77
2022-09-17T08:06:50.975Z,3.80
2022-09-17T08:09:19.188Z,3.63
2022-09-17T08:12:02.641Z,3.83
2022-09-17T08:14:32.045Z,3.20
2022-09-17T08:17:00.047Z,2.97
2022-09-17T08:19:28.664Z,3.10
2022-09-17T08:21:56.663Z,3.03
2022-09-17T08:24:24.704Z,3.13
2022-09-17T08:26:52.959Z,3.50
2022-09-17T08:29:20.985Z,3.00
2022-09-17T08:31:50.564Z,3.30
2022-09-17T08:34:18.664Z,3.50
2022-09-17T08:36:46.700Z,2.83
2022-09-17T08:39:15.172Z,2.90
2022-09-17T08:41:56.354Z,3.00
2022-09-17T08:44:32.995Z,2.60
2022-09-17T08:47:06.254Z,2.83
2022-09-17T08:49:37.039Z,3.37
2022-09-17T08:52:49.923Z,2.93
2022-09-17T08:55:34.070Z,3.37
2022-09-17T08:58:38.201Z,2.60
2022-09-17T09:01:24.365Z,2.83
2022-09-17T09:04:19.656Z,2.43
2022-09-17T09:06:51.156Z,2.40
2022-09-17T09:09:22.146Z,2.70
2022-09-17T09:11:55.543Z,2.93
2022-09-17T09:14:28.590Z,2.70
2022-09-17T09:16:57.810Z,2.83
2022-09-17T09:19:29.694Z,2.57
2022-09-17T09:22:04.740Z,2.47
2022-09-17T09:24:41.835Z,2.63
2022-09-17T09:27:18.862Z,2.73
2022-09-17T09:29:58.578Z,4.17
2022-09-17T09:32:42.643Z,2.90
2022-09-17T09:35:19.870Z,2.90
2022-09-17T09:37:55.206Z,3.03
2022-09-17T09:40:42.505Z,2.80
2022-09-17T09:43:18.525Z,3.30
2022-09-17T09:46:09.375Z,2.70
2022-09-17T09:48:46.992Z,2.60
2022-09-17T09:51:38.392Z,3.13
2022-09-17T09:54:20.978Z,3.10
2022-09-17T09:57:08.447Z,2.77
2022-09-17T09:59:37.060Z,3.10
2022-09-17T10:02:05.879Z,2.80
2022-09-17T10:04:33.983Z,2.77
2022-09-17T10:07:06.866Z,3.00
2022-09-17T10:09:37.093Z,2.50
2022-09-17T10:12:16.347Z,2.77
2022-09-17T10:14:45.854Z,2.37
2022-09-17T10:17:21.780Z,2.60
2022-09-17T10:20:19.305Z,2.93
2022-09-17T10:22:51.731Z,2.67
2022-09-17T10:25:43.011Z,3.00
2022-09-17T10:28:29.024Z,2.43
2022-09-17T10:30:58.684Z,2.47
2022-09-17T10:33:29.398Z,2.43
2022-09-17T10:36:01.316Z,2.50
2022-09-17T10:38:36.019Z,2.37
2022-09-17T10:41:15.792Z,2.70
2022-09-17T10:43:44.074Z,2.60
2022-09-17T10:46:16.410Z,2.47
2022-09-17T10:48:47.767Z,1.90
2022-09-17T10:51:24.148Z,2.22
2022-09-17T10:54:20.282Z,2.53
2022-09-17T10:56:53.750Z,2.50
2022-09-17T10:59:53.816Z,2.60
2022-09-17T11:02:48.885Z,2.60
2022-09-17T11:05:39.225Z,2.50
2022-09-17T11:08:12.968Z,2.00
2022-09-17T11:10:52.055Z,2.00
2022-09-17T11:13:32.017Z,2.10
2022-09-17T11:16:14.182Z,1.90
2022-09-17T11:18:46.684Z,2.40
2022-09-17T11:21:42.904Z,2.10
2022-09-17T11:24:54.692Z,1.73
2022-09-17T11:27:49.318Z,1.73
2022-09-17T11:30:20.310Z,2.00
2022-09-17T11:33:20.828Z,2.00
2022-09-17T11:35:50.652Z,2.00
2022-09-17T11:38:26.066Z,1.97
2022-09-17T11:41:01.731Z,1.75
2022-09-17T11:43:33.874Z,1.63
2022-09-17T11:46:06.567Z,2.55
2022-09-17T11:48:40.454Z,2.00
2022-09-17T11:51:20.156Z,2.00
2022-09-17T11:53:51.897Z,2.13
2022-09-17T11:56:26.802Z,1.67
2022-09-17T11:59:01.495Z,1.80
2022-09-17T12:01:37.097Z,2.17
2022-09-17T12:04:21.030Z,2.20
2022-09-17T12:06:58.017Z,1.63
2022-09-17T12:09:29.934Z,1.52
2022-09-17T12:12:05.176Z,1.55
2022-09-17T12:14:45.850Z,1.23
2022-09-17T12:17:17.950Z,1.52
2022-09-17T12:19:51.844Z,1.30
2022-09-17T12:22:24.697Z,1.48
2022-09-17T12:24:53.158Z,1.50
2022-09-17T12:27:32.143Z,1.60
2022-09-17T12:30:09.522Z,1.35
2022-09-17T12:33:03.039Z,1.25
2022-09-17T12:36:15.505Z,1.13
2022-09-17T12:39:02.894Z,1.10
2022-09-17T12:41:43.893Z,1.17
2022-09-17T12:44:38.684Z,1.10
2022-09-17T12:47:42.624Z,1.20
2022-09-17T12:50:29.078Z,1.40
2022-09-17T12:53:12.631Z,1.23
2022-09-17T12:55:53.174Z,1.03
2022-09-17T12:58:34.287Z,1.27
2022-09-17T13:01:08.381Z,1.17
2022-09-17T13:03:43.917Z,1.00
2022-09-17T13:06:31.458Z,1.17
2022-09-17T13:09:40.472Z,1.07
2022-09-17T13:12:17.374Z,1.17
2022-09-17T13:15:08.816Z,1.40
2022-09-17T13:17:46.660Z,1.57
2022-09-17T13:20:26.504Z,1.30
2022-09-17T13:22:58.057Z,1.03
2022-09-17T13:25:27.132Z,1.50
2022-09-17T13:28:08.420Z,1.23
2022-09-17T13:30:58.389Z,1.73
2022-09-17T13:34:06.125Z,0.90
2022-09-17T13:36:45.392Z,1.15
2022-09-17T13:39:43.387Z,1.17
2022-09-17T13:42:16.554Z,0.90
2022-09-17T13:44:48.833Z,0.83
2022-09-17T13:47:26.819Z,0.97
2022-09-17T13:50:00.488Z,0.90
2022-09-17T13:52:46.530Z,1.00
2022-09-17T13:55:35.331Z,0.80
2022-09-17T13:58:07.614Z,1.07
2022-09-17T14:00:54.238Z,0.80
2022-09-17T14:03:50.936Z,0.70
2022-09-17T14:06:53.861Z,1.07
2022-09-17T14:09:53.284Z,0.80
2022-09-17T14:12:56.571Z,0.70
2022-09-17T14:15:57.066Z,0.70
2022-09-17T14:18:53.323Z,0.77
2022-09-17T14:21:28.429Z,0.70
2022-09-17T14:23:59.673Z,0.60
2022-09-17T14:26:44.633Z,0.57
2022-09-17T14:29:26.871Z,0.53
2022-09-17T14:31:54.953Z,0.60
2022-09-17T14:34:25.770Z,0.50
2022-09-17T14:36:55.515Z,0.47
2022-09-17T14:39:25.654Z,0.93
2022-09-17T14:41:56.569Z,0.50
2022-09-17T14:44:32.901Z,0.52
2022-09-17T14:47:04.872Z,1.00
2022-09-17T14:49:36.780Z,0.63
2022-09-17T14:52:24.250Z,0.57
2022-09-17T14:55:10.857Z,0.88
2022-09-17T14:57:40.384Z,0.57
2022-09-17T15:00:19.554Z,0.63
2022-09-17T15:02:55.777Z,0.82
2022-09-17T15:05:30.340Z,1.23
2022-09-17T15:08:16.028Z,1.03
2022-09-17T15:10:50.234Z,0.80
2022-09-17T15:13:24.637Z,1.17
2022-09-17T15:16:00.066Z,0.60
2022-09-17T15:18:39.144Z,0.60
2022-09-17T15:21:22.088Z,0.70
2022-09-17T15:23:55.123Z,0.57
2022-09-17T15:26:28.668Z,0.87
2022-09-17T15:28:58.928Z,1.20
2022-09-17T15:31:30.327Z,0.80
2022-09-17T15:34:01.033Z,0.80
2022-09-17T15:36:31.674Z,0.70
2022-09-17T15:39:03.105Z,0.97
2022-09-17T15:41:33.553Z,1.10
2022-09-17T15:44:31.852Z,0.87
2022-09-17T15:47:33.666Z,1.00
2022-09-17T15:50:15.813Z,0.90
2022-09-17T15:52:44.519Z,1.20
2022-09-17T15:55:41.144Z,0.80
2022-09-17T15:58:23.431Z,0.67
2022-09-17T16:01:39.535Z,0.77
2022-09-17T16:04:20.606Z,6.20
2022-09-17T16:07:01.733Z,1.50
2022-09-17T16:09:46.876Z,1.70
2022-09-17T16:12:17.455Z,1.10
2022-09-17T16:14:50.448Z,0.93
2022-09-17T16:17:44.227Z,0.87
2022-09-17T16:20:18.209Z,0.90
2022-09-17T16:22:48.066Z,1.13
2022-09-17T16:25:16.908Z,1.10
2022-09-17T16:27:49.329Z,1.07
2022-09-17T16:30:19.748Z,1.20
2022-09-17T16:32:49.494Z,14.73
2022-09-17T16:35:19.714Z,1.43
2022-09-17T16:37:50.446Z,1.63
2022-09-17T16:40:19.384Z,1.20
2022-09-17T16:42:48.161Z,1.03
2022-09-17T16:45:16.753Z,1.20
2022-09-17T16:47:45.462Z,1.60
2022-09-17T16:50:16.849Z,1.67
2022-09-17T16:52:45.635Z,1.40
2022-09-17T16:55:15.041Z,1.07
2022-09-17T16:57:43.595Z,1.10
2022-09-17T17:00:16.094Z,1.33
2022-09-17T17:02:44.409Z,1.20
2022-09-17T17:05:13.978Z,1.37
2022-09-17T17:07:42.062Z,2.50
2022-09-17T17:10:10.950Z,1.20
2022-09-17T17:12:39.546Z,1.40
2022-09-17T17:15:09.274Z,1.47
2022-09-17T17:17:37.751Z,1.20
2022-09-17T17:20:08.042Z,1.63
2022-09-17T17:22:38.103Z,2.07
2022-09-17T17:25:06.822Z,1.50
2022-09-17T17:27:35.759Z,2.40
2022-09-17T17:30:06.673Z,1.50
2022-09-17T17:32:35.014Z,1.80
2022-09-17T17:35:03.240Z,1.93
2022-09-17T17:37:31.355Z,1.40
2022-09-17T17:40:01.904Z,1.77
2022-09-17T17:42:35.745Z,1.80
2022-09-17T17:45:03.936Z,1.63
2022-09-17T17:47:31.975Z,2.10
2022-09-17T17:49:59.991Z,1.70
2022-09-17T17:52:28.075Z,1.73
2022-09-17T17:54:56.264Z,1.50
2022-09-17T17:57:25.754Z,2.10
2022-09-17T17:59:53.772Z,1.60
2022-09-17T18:02:21.935Z,1.57
2022-09-17T18:04:49.989Z,1.50
2022-09-17T18:07:18.037Z,1.83
2022-09-17T18:09:46.533Z,1.60
2022-09-17T18:12:14.670Z,1.50
2022-09-17T18:14:44.065Z,1.53
2022-09-17T18:17:12.111Z,1.27
2022-09-17T18:19:40.135Z,1.30
2022-09-17T18:22:08.264Z,1.77
2022-09-17T18:24:36.415Z,1.60
2022-09-17T18:27:04.706Z,1.80
2022-09-17T18:29:32.723Z,1.80
2022-09-17T18:32:02.703Z,1.50
2022-09-17T18:34:32.358Z,1.70
2022-09-17T18:37:00.489Z,1.60
2022-09-17T18:42:16.579Z,1.80
2022-09-17T18:44:44.656Z,1.70
2022-09-17T18:47:14.128Z,1.67
2022-09-17T18:49:42.128Z,2.33
2022-09-17T18:52:10.178Z,1.50
2022-09-17T18:54:38.293Z,2.63
2022-09-17T18:57:06.589Z,2.50
2022-09-17T18:59:34.718Z,1.83
2022-09-17T19:02:02.829Z,2.00
2022-09-17T19:04:32.260Z,2.20
2022-09-17T19:07:00.296Z,2.07
2022-09-17T19:09:28.380Z,1.90
2022-09-17T19:11:56.417Z,2.27
2022-09-17T19:14:24.452Z,1.70
2022-09-17T19:16:52.491Z,2.40
2022-09-17T19:19:20.576Z,1.90
2022-09-17T19:21:51.526Z,2.00
2022-09-17T19:24:19.627Z,1.50
2022-09-17T19:26:50.739Z,1.67
2022-09-17T19:29:19.143Z,1.93
2022-09-17T19:31:47.208Z,1.93
2022-09-17T19:34:15.319Z,1.60
2022-09-17T19:36:43.333Z,1.83
2022-09-17T19:39:12.747Z,1.30
2022-09-17T19:41:40.765Z,1.33
2022-09-17T19:44:10.223Z,1.67
2022-09-17T19:46:38.403Z,1.60
2022-09-17T19:49:07.066Z,1.90
2022-09-17T19:51:35.339Z,1.90
2022-09-17T19:54:06.734Z,2.07
2022-09-17T19:56:36.134Z,1.80
2022-09-17T19:59:04.341Z,1.80
2022-09-17T20:01:34.655Z,2.17
2022-09-17T20:04:03.431Z,1.90
2022-09-17T20:06:34.051Z,1.87
2022-09-17T20:09:02.675Z,2.20
2022-09-17T20:11:30.716Z,1.90
2022-09-17T20:14:03.112Z,1.90
2022-09-17T20:16:31.581Z,2.20
2022-09-17T20:19:01.000Z,2.20
2022-09-17T20:21:31.086Z,1.90
2022-09-17T20:23:59.786Z,2.10
2022-09-17T20:26:28.375Z,2.17
2022-09-17T20:28:56.489Z,2.63
2022-09-17T20:31:27.391Z,2.40
2022-09-17T20:33:56.392Z,2.37
2022-09-17T20:36:26.237Z,2.30
2022-09-17T20:39:11.551Z,2.10
2022-09-17T20:41:42.305Z,2.30
2022-09-17T20:44:10.382Z,2.93
2022-09-17T20:46:39.845Z,2.57
2022-09-17T20:49:07.915Z,1.93
2022-09-17T20:51:36.290Z,3.17
2022-09-17T20:54:04.971Z,2.73
2022-09-17T20:56:35.348Z,3.40
2022-09-17T20:59:13.056Z,3.97
2022-09-17T21:01:45.009Z,4.50
2022-09-17T21:04:15.438Z,2.93
2022-09-17T21:06:44.884Z,2.50
2022-09-17T21:09:16.128Z,2.63
2022-09-17T21:11:45.266Z,2.13
2022-09-17T21:14:15.705Z,1.97
2022-09-17T21:16:45.957Z,2.00
2022-09-17T21:19:16.188Z,2.40
2022-09-17T21:21:44.419Z,2.33
2022-09-17T21:24:12.962Z,2.30
2022-09-17T21:26:40.978Z,2.20
2022-09-17T21:29:09.223Z,2.30
2022-09-17T21:31:38.552Z,2.30
2022-09-17T21:34:11.787Z,1.97
2022-09-17T21:36:41.981Z,2.07
2022-09-17T21:39:13.394Z,2.20
2022-09-17T21:41:42.866Z,2.17
2022-09-17T21:44:12.459Z,2.10
2022-09-17T21:46:41.697Z,2.20
2022-09-17T21:49:13.444Z,2.77
2022-09-17T21:51:43.241Z,2.40
2022-09-17T21:54:13.298Z,2.33
2022-09-17T21:56:41.327Z,2.40
2022-09-17T21:59:11.152Z,2.57
2022-09-17T22:01:40.890Z,2.30
2022-09-17T22:04:12.603Z,1.80
2022-09-17T22:06:41.189Z,2.80
2022-09-17T22:09:14.837Z,2.40
2022-09-17T22:11:42.930Z,2.20
2022-09-17T22:14:13.552Z,2.53
2022-09-17T22:16:43.551Z,2.20
2022-09-17T22:19:15.162Z,2.33
2022-09-17T22:21:47.275Z,2.80
2022-09-17T22:24:16.732Z,2.37
2022-09-17T22:26:46.584Z,2.90
2022-09-17T22:29:16.305Z,2.47
2022-09-17T22:31:45.501Z,2.80
2022-09-17T22:34:17.079Z,2.70
2022-09-17T22:36:45.139Z,2.53
2022-09-17T22:39:13.211Z,2.37
2022-09-17T22:41:45.141Z,2.77
2022-09-17T22:44:15.755Z,2.53
2022-09-17T22:46:46.521Z,2.33
2022-09-17T22:49:16.684Z,2.47
2022-09-17T22:51:46.660Z,2.40
2022-09-17T22:54:16.798Z,2.43
2022-09-17T22:56:45.312Z,2.17
2022-09-17T22:59:14.041Z,2.60
2022-09-17T23:01:43.352Z,2.70
2022-09-17T23:04:11.496Z,2.90
2022-09-17T23:06:43.044Z,3.07
2022-09-17T23:09:13.061Z,2.73
2022-09-17T23:11:41.169Z,2.60
2022-09-17T23:14:12.082Z,2.83
2022-09-17T23:16:41.830Z,2.60
2022-09-17T23:19:10.382Z,2.57
2022-09-17T23:21:40.441Z,2.40
2022-09-17T23:24:09.328Z,3.13
2022-09-17T23:26:37.473Z,2.30
2022-09-17T23:29:05.997Z,2.57
2022-09-17T23:31:35.857Z,2.77
2022-09-17T23:34:05.430Z,2.40
2022-09-17T23:36:36.026Z,2.30
2022-09-17T23:39:06.945Z,2.87
2022-09-17T23:41:37.263Z,3.00
2022-09-17T23:44:12.085Z,2.90
2022-09-17T23:46:43.028Z,2.77
2022-09-17T23:49:12.391Z,2.80
2022-09-17T23:51:40.639Z,2.70
2022-09-17T23:54:10.216Z,2.83
2022-09-17T23:56:38.292Z,2.70
2022-09-17T23:59:07.456Z,2.50
